createdAt,value
2022-09-04T00:00:09.088Z,7.88
2022-09-04T00:02:50.641Z,6.35
2022-09-04T00:05:22.750Z,9.13
2022-09-04T00:08:17.261Z,11.57
2022-09-04T00:10:56.528Z,5.85
2022-09-04T00:13:34.653Z,6.80
2022-09-04T00:16:06.783Z,10.35
2022-09-04T00:18:48.249Z,8.52
2022-09-04T00:21:14.584Z,8.52
2022-09-04T00:23:48.336Z,8.15
2022-09-04T00:26:20.873Z,5.90
2022-09-04T00:28:53.638Z,9.73
2022-09-04T00:31:29.070Z,8.07
2022-09-04T00:33:55.369Z,8.93
2022-09-04T00:36:24.274Z,6.90
2022-09-04T00:39:00.427Z,4.72
2022-09-04T00:41:38.976Z,4.75
2022-09-04T00:44:20.377Z,9.32
2022-09-04T00:47:05.964Z,6.65
2022-09-04T00:49:38.255Z,5.30
2022-09-04T00:52:14.457Z,10.55
2022-09-04T00:55:00.319Z,5.75
2022-09-04T00:57:52.887Z,8.68
2022-09-04T01:00:20.413Z,5.03
2022-09-04T01:02:56.870Z,7.25
2022-09-04T01:05:43.364Z,5.32
2022-09-04T01:08:16.725Z,6.80
2022-09-04T01:11:09.877Z,7.82
2022-09-04T01:13:39.740Z,2.72
2022-09-04T01:16:11.380Z,8.15
2022-09-04T01:18:44.113Z,7.72
2022-09-04T01:21:19.335Z,7.55
2022-09-04T01:23:45.662Z,6.82
2022-09-04T01:26:32.263Z,5.03
2022-09-04T01:28:58.880Z,10.85
2022-09-04T01:31:40.541Z,8.48
2022-09-04T01:34:19.294Z,10.20
2022-09-04T01:37:04.100Z,10.38
2022-09-04T01:39:31.973Z,8.63
2022-09-04T01:42:01.670Z,7.32
2022-09-04T01:44:29.827Z,9.52
2022-09-04T01:46:59.468Z,9.52
2022-09-04T01:49:40.967Z,7.97
2022-09-04T01:52:22.637Z,7.05
2022-09-04T01:54:54.041Z,10.90
2022-09-04T01:57:29.719Z,9.00
2022-09-04T02:02:28.050Z,7.07
2022-09-04T02:04:59.809Z,7.38
2022-09-04T02:07:42.701Z,6.82
2022-09-04T02:10:22.888Z,5.53
2022-09-04T02:12:58.323Z,8.35
2022-09-04T02:15:29.555Z,9.05
2022-09-04T02:18:11.663Z,6.68
2022-09-04T02:20:39.678Z,5.13
2022-09-04T02:23:11.797Z,8.23
2022-09-04T02:25:56.729Z,9.95
2022-09-04T02:28:23.213Z,8.55
2022-09-04T02:30:54.517Z,9.82
2022-09-04T02:33:35.450Z,11.07
2022-09-04T02:36:07.797Z,13.13
2022-09-04T02:38:43.029Z,8.48
2022-09-04T02:41:19.568Z,6.15
2022-09-04T02:44:01.257Z,8.60
2022-09-04T02:46:38.146Z,7.47
2022-09-04T02:49:17.021Z,6.78
2022-09-04T02:51:43.327Z,10.10
2022-09-04T02:54:28.513Z,10.93
2022-09-04T02:57:14.994Z,8.23
2022-09-04T02:59:48.578Z,8.05
2022-09-04T03:02:30.331Z,9.15
2022-09-04T03:05:15.284Z,9.85
2022-09-04T03:07:45.719Z,5.97
2022-09-04T03:10:19.821Z,8.07
2022-09-04T03:12:55.835Z,4.30
2022-09-04T03:15:29.190Z,5.50
2022-09-04T03:18:16.969Z,8.10
2022-09-04T03:20:47.316Z,7.70
2022-09-04T03:23:33.968Z,17.52
2022-09-04T03:26:00.309Z,7.32
2022-09-04T03:28:41.438Z,7.80
2022-09-04T03:31:26.566Z,9.55
2022-09-04T03:33:59.372Z,10.23
2022-09-04T03:36:35.437Z,8.15
2022-09-04T03:39:12.409Z,9.43
2022-09-04T03:41:38.857Z,11.25
2022-09-04T03:44:08.268Z,8.95
2022-09-04T03:46:40.407Z,6.70
2022-09-04T03:49:26.417Z,6.85
2022-09-04T03:52:05.608Z,8.63
2022-09-04T03:54:47.305Z,7.07
2022-09-04T03:57:19.748Z,8.65
2022-09-04T03:59:46.156Z,6.70
2022-09-04T04:02:25.778Z,8.82
2022-09-04T04:05:10.781Z,9.40
2022-09-04T04:07:37.212Z,11.77
2022-09-04T04:10:03.605Z,11.88
2022-09-04T04:12:42.558Z,9.75
2022-09-04T04:15:21.311Z,12.45
2022-09-04T04:18:04.368Z,12.80
2022-09-04T04:20:46.024Z,6.40
2022-09-04T04:23:31.307Z,5.72
2022-09-04T04:25:59.881Z,9.20
2022-09-04T04:28:59.209Z,8.85
2022-09-04T04:31:34.985Z,9.75
2022-09-04T04:34:15.956Z,7.70
2022-09-04T04:36:55.160Z,9.50
2022-09-04T04:39:50.924Z,4.93
2022-09-04T04:42:24.491Z,9.60
2022-09-04T04:45:14.447Z,7.93
2022-09-04T04:47:52.620Z,6.40
2022-09-04T04:50:27.936Z,11.95
2022-09-04T04:53:05.431Z,10.63
2022-09-04T04:55:34.500Z,7.13
2022-09-04T04:58:00.843Z,9.85
2022-09-04T05:00:37.129Z,10.30
2022-09-04T05:03:06.650Z,13.18
2022-09-04T05:05:56.428Z,12.48
2022-09-04T05:08:36.412Z,7.70
2022-09-04T05:11:07.601Z,7.95
2022-09-04T05:13:48.564Z,11.40
2022-09-04T05:16:22.882Z,13.85
2022-09-04T05:18:52.329Z,10.30
2022-09-04T05:21:30.543Z,11.98
2022-09-04T05:24:05.356Z,9.93
2022-09-04T05:26:32.127Z,15.30
2022-09-04T05:29:02.971Z,13.60
2022-09-04T05:31:38.029Z,13.65
2022-09-04T05:34:08.627Z,9.68
2022-09-04T05:36:52.723Z,10.23
2022-09-04T05:39:22.302Z,13.57
2022-09-04T05:42:07.728Z,9.57
2022-09-04T05:44:47.696Z,12.35
2022-09-04T05:47:20.071Z,11.15
2022-09-04T05:49:57.168Z,14.30
2022-09-04T05:52:23.505Z,8.02
2022-09-04T05:54:56.670Z,9.27
2022-09-04T05:57:28.489Z,9.35
2022-09-04T05:59:54.788Z,12.43
2022-09-04T06:02:40.130Z,6.75
2022-09-04T06:05:06.477Z,10.48
2022-09-04T06:07:51.806Z,12.02
2022-09-04T06:10:18.203Z,13.20
2022-09-04T06:13:03.106Z,12.18
2022-09-04T06:15:35.290Z,8.65
2022-09-04T06:18:20.139Z,11.63
2022-09-04T06:21:09.521Z,7.75
2022-09-04T06:23:35.856Z,12.05
2022-09-04T06:26:02.214Z,8.02
2022-09-04T06:28:47.483Z,10.68
2022-09-04T06:31:20.897Z,15.02
2022-09-04T06:34:25.987Z,14.68
2022-09-04T06:37:04.407Z,7.05
2022-09-04T06:39:48.876Z,10.23
2022-09-04T06:42:15.263Z,12.88
2022-09-04T06:45:09.727Z,7.63
2022-09-04T06:47:36.063Z,8.55
2022-09-04T06:50:25.315Z,9.20
2022-09-04T06:53:10.749Z,6.78
2022-09-04T06:55:56.120Z,17.58
2022-09-04T06:58:25.516Z,14.80
2022-09-04T07:01:08.820Z,13.55
2022-09-04T07:04:00.931Z,13.27
2022-09-04T07:06:47.575Z,17.85
2022-09-04T07:09:16.950Z,15.88
2022-09-04T07:12:01.117Z,17.63
2022-09-04T07:14:42.598Z,17.55
2022-09-04T07:17:18.076Z,22.25
2022-09-04T07:19:56.095Z,19.05
2022-09-04T07:22:22.434Z,22.60
2022-09-04T07:25:00.957Z,19.15
2022-09-04T07:27:36.106Z,21.55
2022-09-04T07:30:05.179Z,14.10
2022-09-04T07:32:43.428Z,22.52
2022-09-04T07:35:15.891Z,24.02
2022-09-04T07:38:00.412Z,30.25
2022-09-04T07:40:32.688Z,22.05
2022-09-04T07:43:06.010Z,26.30
2022-09-04T07:45:39.949Z,22.50
2022-09-04T07:48:06.703Z,6.53
2022-09-04T07:50:40.077Z,26.15
2022-09-04T07:53:13.678Z,31.75
2022-09-04T07:55:47.912Z,25.27
2022-09-04T07:58:24.628Z,27.67
2022-09-04T08:00:51.542Z,21.85
2022-09-04T08:03:29.910Z,23.35
2022-09-04T08:06:03.276Z,15.90
2022-09-04T08:08:43.131Z,29.80
2022-09-04T08:11:12.671Z,37.60
2022-09-04T08:13:55.925Z,37.70
2022-09-04T08:16:22.272Z,39.17
2022-09-04T08:18:58.155Z,33.78
2022-09-04T08:21:32.549Z,38.90
2022-09-04T08:24:14.000Z,31.83
2022-09-04T08:26:43.164Z,40.47
2022-09-04T08:29:20.055Z,41.72
2022-09-04T08:32:04.426Z,43.45
2022-09-04T08:34:50.505Z,45.80
2022-09-04T08:39:55.805Z,45.95
2022-09-04T08:42:22.290Z,24.38
2022-09-04T08:44:48.613Z,25.70
2022-09-04T08:47:28.357Z,46.92
2022-09-04T08:50:24.245Z,44.47
2022-09-04T08:53:09.262Z,38.03
2022-09-04T08:55:40.148Z,24.67
2022-09-04T08:58:34.455Z,48.33
2022-09-04T09:01:19.122Z,44.92
2022-09-04T09:03:57.838Z,51.33
2022-09-04T09:06:24.286Z,48.40
2022-09-04T09:09:02.541Z,43.53
2022-09-04T09:11:34.878Z,43.03
2022-09-04T09:14:07.490Z,31.98
2022-09-04T09:16:42.834Z,43.25
2022-09-04T09:19:22.840Z,49.63
2022-09-04T09:21:58.308Z,39.10
2022-09-04T09:24:47.800Z,39.00
2022-09-04T09:27:34.371Z,29.30
2022-09-04T09:30:18.050Z,26.02
2022-09-04T09:32:44.458Z,27.80
2022-09-04T09:35:30.325Z,32.17
2022-09-04T09:38:20.575Z,40.30
2022-09-04T09:40:51.446Z,39.08
2022-09-04T09:43:29.539Z,38.28
2022-09-04T09:46:31.422Z,33.80
2022-09-04T09:49:00.911Z,41.00
2022-09-04T09:51:45.516Z,35.28
2022-09-04T09:54:29.136Z,37.42
2022-09-04T09:57:07.750Z,37.05
2022-09-04T09:59:51.687Z,28.70
2022-09-04T10:02:30.276Z,38.10
2022-09-04T10:04:59.440Z,29.58
2022-09-04T10:07:29.789Z,22.30
2022-09-04T10:10:14.579Z,29.50
2022-09-04T10:13:07.974Z,26.25
2022-09-04T10:15:40.388Z,30.77
2022-09-04T10:18:15.724Z,29.50
2022-09-04T10:21:11.342Z,27.30
2022-09-04T10:23:37.667Z,33.88
2022-09-04T10:26:14.117Z,29.95
2022-09-04T10:28:49.460Z,32.22
2022-09-04T10:31:29.123Z,24.05
2022-09-04T10:34:13.143Z,34.05
2022-09-04T10:36:58.390Z,37.28
2022-09-04T10:39:55.573Z,37.85
2022-09-04T10:42:45.274Z,14.05
2022-09-04T10:45:47.279Z,14.63
2022-09-04T10:48:13.705Z,15.48
2022-09-04T10:50:46.251Z,15.05
2022-09-04T10:53:15.252Z,14.82
2022-09-04T10:55:50.452Z,16.83
2022-09-04T10:58:29.332Z,20.00
2022-09-04T11:01:06.392Z,21.95
2022-09-04T11:03:51.315Z,21.00
2022-09-04T11:06:25.829Z,13.82
2022-09-04T11:08:52.228Z,20.60
2022-09-04T11:11:27.489Z,16.88
2022-09-04T11:14:06.421Z,19.90
2022-09-04T11:16:51.656Z,22.52
2022-09-04T11:19:24.017Z,21.65
2022-09-04T11:22:19.461Z,20.90
2022-09-04T11:25:01.636Z,24.17
2022-09-04T11:27:34.285Z,23.23
2022-09-04T11:30:02.221Z,9.07
2022-09-04T11:32:32.054Z,13.48
2022-09-04T11:35:13.871Z,18.27
2022-09-04T11:37:43.416Z,13.73
2022-09-04T11:40:18.881Z,29.70
2022-09-04T11:43:00.279Z,33.47
2022-09-04T11:45:29.443Z,30.02
2022-09-04T11:47:58.909Z,31.90
2022-09-04T11:50:28.064Z,27.08
2022-09-04T11:53:13.232Z,32.78
2022-09-04T11:55:52.663Z,28.03
2022-09-04T11:58:22.120Z,25.60
2022-09-04T12:01:00.386Z,26.33
2022-09-04T12:03:45.566Z,24.30
2022-09-04T12:06:35.066Z,25.38
2022-09-04T12:09:04.479Z,27.10
2022-09-04T12:11:32.046Z,16.25
2022-09-04T12:13:58.552Z,22.42
2022-09-04T12:16:44.706Z,18.23
2022-09-04T12:19:21.279Z,10.95
2022-09-04T12:21:53.696Z,30.98
2022-09-04T12:24:22.828Z,26.20
2022-09-04T12:27:07.722Z,28.50
2022-09-04T12:29:50.391Z,27.95
2022-09-04T12:32:35.372Z,27.30
2022-09-04T12:35:20.848Z,29.35
2022-09-04T12:37:47.171Z,25.63
2022-09-04T12:40:19.505Z,22.98
2022-09-04T12:42:45.856Z,24.58
2022-09-04T12:45:21.741Z,24.27
2022-09-04T12:48:10.355Z,25.75
2022-09-04T12:50:56.377Z,21.58
2022-09-04T12:56:01.006Z,22.23
2022-09-04T12:58:46.195Z,18.85
2022-09-04T13:01:32.156Z,21.53
2022-09-04T13:04:11.530Z,16.50
2022-09-04T13:07:07.126Z,13.98
2022-09-04T13:10:05.580Z,11.13
2022-09-04T13:12:50.564Z,11.27
2022-09-04T13:15:35.504Z,13.93
2022-09-04T13:18:21.299Z,10.70
2022-09-04T13:20:47.677Z,9.77
2022-09-04T13:23:17.592Z,10.82
2022-09-04T13:25:53.278Z,10.40
2022-09-04T13:31:00.072Z,11.98
2022-09-04T13:33:27.268Z,14.05
2022-09-04T13:35:59.268Z,11.75
2022-09-04T13:38:44.396Z,11.23
2022-09-04T13:41:17.100Z,17.13
2022-09-04T13:43:43.421Z,15.43
2022-09-04T13:46:20.232Z,13.70
2022-09-04T13:48:52.080Z,11.88
2022-09-04T13:51:29.694Z,9.07
2022-09-04T13:54:03.235Z,11.55
2022-09-04T13:56:58.765Z,14.18
2022-09-04T13:59:25.291Z,12.90
2022-09-04T14:01:54.390Z,16.13
2022-09-04T14:04:27.541Z,13.05
2022-09-04T14:07:06.963Z,14.20
2022-09-04T14:09:39.067Z,11.55
2022-09-04T14:12:23.152Z,12.93
2022-09-04T14:14:59.633Z,6.65
2022-09-04T14:17:31.014Z,13.80
2022-09-04T14:20:00.499Z,11.45
2022-09-04T14:22:33.482Z,11.02
2022-09-04T14:25:21.255Z,13.13
2022-09-04T14:28:03.455Z,11.85
2022-09-04T14:30:31.672Z,12.95
2022-09-04T14:33:35.519Z,9.48
2022-09-04T14:36:17.102Z,13.30
2022-09-04T14:38:43.414Z,13.00
2022-09-04T14:41:35.836Z,14.80
2022-09-04T14:44:18.100Z,14.75
2022-09-04T14:46:57.063Z,11.65
2022-09-04T14:49:24.863Z,10.98
2022-09-04T14:51:56.507Z,12.80
2022-09-04T14:54:27.926Z,12.63
2022-09-04T14:57:00.205Z,15.93
2022-09-04T14:59:26.509Z,13.23
2022-09-04T15:01:55.737Z,10.90
2022-09-04T15:04:29.053Z,13.30
2022-09-04T15:07:11.238Z,17.53
2022-09-04T15:09:41.104Z,10.05
2022-09-04T15:12:25.700Z,15.40
2022-09-04T15:14:55.989Z,9.98
2022-09-04T15:17:29.848Z,10.18
2022-09-04T15:19:59.799Z,10.75
2022-09-04T15:22:36.820Z,14.85
2022-09-04T15:25:12.382Z,14.88
2022-09-04T15:30:07.688Z,13.45
2022-09-04T15:32:36.718Z,13.30
2022-09-04T15:35:09.117Z,9.30
2022-09-04T15:37:35.543Z,11.48
2022-09-04T15:40:13.947Z,11.40
2022-09-04T15:42:52.174Z,14.07
2022-09-04T15:45:23.536Z,11.98
2022-09-04T15:48:03.448Z,14.65
2022-09-04T15:50:32.497Z,12.05
2022-09-04T15:53:09.432Z,17.83
2022-09-04T15:55:38.107Z,14.63
2022-09-04T15:58:14.676Z,13.63
2022-09-04T16:00:56.435Z,12.40
2022-09-04T16:03:27.476Z,12.63
2022-09-04T16:05:59.105Z,12.27
2022-09-04T16:08:35.416Z,14.60
2022-09-04T16:11:03.813Z,14.52
2022-09-04T16:13:37.257Z,14.43
2022-09-04T16:16:19.100Z,13.45
2022-09-04T16:18:55.374Z,14.13
2022-09-04T16:21:32.183Z,11.82
2022-09-04T16:24:05.544Z,16.08
2022-09-04T16:26:33.021Z,13.00
2022-09-04T16:29:03.660Z,14.35
2022-09-04T16:31:37.055Z,12.45
2022-09-04T16:34:12.420Z,16.30
2022-09-04T16:36:45.706Z,12.52
2022-09-04T16:39:35.818Z,15.82
2022-09-04T16:42:20.999Z,16.65
2022-09-04T16:44:50.819Z,13.20
2022-09-04T16:47:21.358Z,14.27
2022-09-04T16:49:47.674Z,16.38
2022-09-04T16:52:21.234Z,13.82
2022-09-04T16:54:50.595Z,13.73
2022-09-04T16:57:18.507Z,11.93
2022-09-04T16:59:48.508Z,12.40
2022-09-04T17:02:35.852Z,14.18
2022-09-04T17:05:23.527Z,12.98
2022-09-04T17:07:59.309Z,14.68
2022-09-04T17:10:41.214Z,13.52
2022-09-04T17:13:15.563Z,17.15
2022-09-04T17:15:54.420Z,15.63
2022-09-04T17:18:23.086Z,13.25
2022-09-04T17:21:56.942Z,13.25
2022-09-04T17:28:59.981Z,14.98
2022-09-04T17:29:08.419Z,16.02
2022-09-04T17:29:33.736Z,15.27
2022-09-04T17:34:04.348Z,14.98
2022-09-04T17:40:42.243Z,12.15
2022-09-04T17:40:54.952Z,14.80
2022-09-04T17:41:39.555Z,15.98
2022-09-04T17:44:16.512Z,14.30
2022-09-04T17:46:53.075Z,15.60
2022-09-04T17:49:20.650Z,13.20
2022-09-04T17:51:48.463Z,11.30
2022-09-04T17:54:16.331Z,12.27
2022-09-04T17:56:54.963Z,18.10
2022-09-04T17:59:24.719Z,19.17
2022-09-04T18:01:51.147Z,18.92
2022-09-04T18:04:21.976Z,20.40
2022-09-04T18:07:22.028Z,20.67
2022-09-04T18:09:58.426Z,16.75
2022-09-04T18:12:31.268Z,14.15
2022-09-04T18:15:32.369Z,16.67
2022-09-04T18:17:56.769Z,20.65
2022-09-04T18:20:39.230Z,16.52
2022-09-04T18:23:15.261Z,16.67
2022-09-04T18:25:50.906Z,22.00
2022-09-04T18:28:17.303Z,15.45
2022-09-04T18:37:10.292Z,23.48
2022-09-04T18:37:24.547Z,21.23
2022-09-04T18:39:57.116Z,19.25
2022-09-04T18:48:39.605Z,14.82
2022-09-04T18:50:35.603Z,19.20
2022-09-04T18:50:43.339Z,21.30
2022-09-04T18:51:20.751Z,22.58
2022-09-04T18:54:01.340Z,15.43
2022-09-04T18:56:28.940Z,21.52
2022-09-04T18:59:07.696Z,19.40
2022-09-04T19:01:40.044Z,22.27
2022-09-04T19:04:18.729Z,23.73
2022-09-04T19:06:52.604Z,25.48
2022-09-04T19:09:25.738Z,20.70
2022-09-04T19:11:57.302Z,24.00
2022-09-04T19:14:34.302Z,28.55
2022-09-04T19:17:10.497Z,24.67
2022-09-04T19:19:42.972Z,13.20
2022-09-04T19:22:23.924Z,21.55
2022-09-04T19:24:56.517Z,21.45
2022-09-04T19:27:43.587Z,25.88
2022-09-04T19:30:23.954Z,21.95
2022-09-04T19:33:13.520Z,18.23
2022-09-04T19:35:52.026Z,20.90
2022-09-04T19:45:54.409Z,24.42
2022-09-04T19:46:01.428Z,29.67
2022-09-04T19:46:26.611Z,27.50
2022-09-04T19:47:37.076Z,27.95
2022-09-04T19:53:22.246Z,27.73
2022-09-04T19:53:31.773Z,26.25
2022-09-04T19:55:59.596Z,35.88
2022-09-04T19:58:35.937Z,30.73
2022-09-04T20:01:03.612Z,30.90
2022-09-04T20:03:46.238Z,35.28
2022-09-04T20:06:20.742Z,26.70
2022-09-04T20:09:07.369Z,31.95
2022-09-04T20:11:38.173Z,31.10
2022-09-04T20:14:19.724Z,34.65
2022-09-04T20:16:51.331Z,18.42
2022-09-04T20:19:28.261Z,28.83
2022-09-04T20:22:03.639Z,33.25
2022-09-04T20:24:37.528Z,36.85
2022-09-04T20:27:24.284Z,32.92
2022-09-04T20:30:12.852Z,36.00
2022-09-04T20:32:41.998Z,38.05
2022-09-04T20:35:13.117Z,37.95
2022-09-04T20:37:43.590Z,27.27
2022-09-04T20:40:26.836Z,34.35
2022-09-04T20:42:56.275Z,34.17
2022-09-04T20:47:30.716Z,34.60
2022-09-04T20:52:52.041Z,36.60
2022-09-04T20:54:11.281Z,43.08
2022-09-04T20:59:20.996Z,31.58
2022-09-04T21:03:14.759Z,37.60
2022-09-04T21:03:18.290Z,36.17
2022-09-04T21:05:28.827Z,26.00
2022-09-04T21:08:00.621Z,28.33
2022-09-04T21:10:38.199Z,26.35
2022-09-04T21:13:14.351Z,29.08
2022-09-04T21:15:46.883Z,39.45
2022-09-04T21:18:31.346Z,38.67
2022-09-04T21:21:16.293Z,35.05
2022-09-04T21:24:12.614Z,43.50
2022-09-04T21:26:57.980Z,42.50
2022-09-04T21:29:48.703Z,36.40
2022-09-04T21:32:36.197Z,37.35
2022-09-04T21:35:08.118Z,36.50
2022-09-04T21:37:45.774Z,37.28
2022-09-04T21:40:51.287Z,33.13
2022-09-04T21:43:33.461Z,42.70
2022-09-04T21:46:08.386Z,42.92
2022-09-04T21:49:07.637Z,35.00
2022-09-04T21:51:53.504Z,36.28
2022-09-04T21:57:11.754Z,25.83
2022-09-04T22:02:29.570Z,39.72
2022-09-04T22:02:46.085Z,39.25
2022-09-04T22:03:30.075Z,35.33
2022-09-04T22:06:03.675Z,39.80
2022-09-04T22:13:28.898Z,38.35
2022-09-04T22:13:43.376Z,38.08
2022-09-04T22:14:30.067Z,28.30
2022-09-04T22:17:04.458Z,39.30
2022-09-04T22:19:30.799Z,30.27
2022-09-04T22:22:03.478Z,41.03
2022-09-04T22:24:48.803Z,37.03
2022-09-04T22:28:07.539Z,37.70
2022-09-04T22:30:42.506Z,39.50
2022-09-04T22:33:15.003Z,38.70
2022-09-04T22:36:01.304Z,35.03
2022-09-04T22:38:36.229Z,37.22
2022-09-04T22:41:11.576Z,36.25
2022-09-04T22:43:46.756Z,26.23
2022-09-04T22:46:19.719Z,41.30
2022-09-04T22:49:17.499Z,38.13
2022-09-04T22:52:02.613Z,35.05
2022-09-04T22:54:45.452Z,40.22
2022-09-04T22:57:14.552Z,40.65
2022-09-04T22:59:43.624Z,38.65
2022-09-04T23:02:54.235Z,35.17
2022-09-04T23:05:44.441Z,29.25
2022-09-04T23:13:42.211Z,24.83
2022-09-04T23:13:52.401Z,16.85
2022-09-04T23:14:23.336Z,25.80
2022-09-04T23:16:49.951Z,26.85
2022-09-04T23:22:49.246Z,17.45
2022-09-04T23:26:43.579Z,21.50
2022-09-04T23:26:43.772Z,17.27
2022-09-04T23:28:27.663Z,17.33
2022-09-04T23:30:57.770Z,14.10
2022-09-04T23:33:34.777Z,17.85
2022-09-04T23:36:02.565Z,17.73
2022-09-04T23:38:34.966Z,17.60
2022-09-04T23:41:20.717Z,14.00
2022-09-04T23:44:06.093Z,23.70
2022-09-04T23:46:55.555Z,16.65
2022-09-04T23:49:40.456Z,13.90
2022-09-04T23:52:27.267Z,11.85
2022-09-04T23:55:05.984Z,16.08
2022-09-04T23:57:46.561Z,8.57
